Panna Maria, TX (78144)

3:03 AM CDT on July 13, 2014 (GMT -0500)
Karnes County (KTXKARNE2) Elev 381 ft | 28.88 °N, 97.86 °W | Change Station

Current weather conditions updated 16 seconds ago

Clear
Clear
75.0 °F
Feels Like 73 °F
N
2.9
Wind Variable Wind from NW
Gusts 3.0 mph

Today is forecast to be Warmer than yesterday.

Today
High -- | Low -- °F
--% Chance of Precip.
Yesterday
High -- | Low -- °F
Precip. -- in
6:42 AM 8:32 PM
Full, 99% visible
Pressure 30.09 in
Visibility 10.0 miles
Clouds Clear
Heat Index 73 °F
Dew Point 73 °F
Humidity 95%
Rainfall 0.00 in
Snow Depth Not available.
UV 0 out of 12
Pollen 3.20 out of 12
Air Quality Not available.
Flu Activity Sporadic
METAR KPEZ 130755Z AUTO 00000KT 10SM CLR 24/22 A3009 RMK AO2 T02370215

More Conditions Fewer Conditions

Pressure 30.09 in
Visibility 10.0 miles
Clouds Clear
Heat Index 73 °F
Dew Point 73 °F
Humidity 95%
Rainfall 0.00 in
Snow Depth Not available.
UV 0 out of 12
Pollen 3.20 out of 12
Air Quality Not available.
Flu Activity Sporadic
METAR KPEZ 130755Z AUTO 00000KT 10SM CLR 24/22 A3009 RMK AO2 T02370215

More Conditions Fewer Conditions

10-Day Weather Forecast

Almanac

Astronomy

Jul. 13, 2014 Rise Set
Actual Time 6:42 AM CDT 8:32 PM CDT
Civil Twilight 6:15 AM CDT 8:59 PM CDT
Nautical Twilight 5:43 AM CDT 9:31 PM CDT
Astronomical Twilight 5:09 AM CDT 10:04 PM CDT
Moon 9:35 PM CDT 8:03 AM CDT
Length of Visible Light 14h 43m
Length of Day
13h 50m
Tomorrow will be 0m 48s shorter.
Full, 99% of the Moon is Illuminated
Today
Full
Jul 18
Last Quarter
Jul 26
New
Aug 3
First Quarter
Aug 10
Full

Today's Extremes

State Highs State Lows

Community

WunderPhotos

Upload Photos

1,733,143 photos uploaded!

Nearby

Snow Depth

Station Depth Elevation
No new snow has been reported.

Earthquake Activity

City Distance Mag. Time & Date
No recent earthquake activity has been reported nearby.
Minimum magnitude displayed is 2.5.

Coastal Water Temperatures

Place Temperature
No Stations Reporting

Nearby Weather Stations

Station Location Temp. Heat Index Dew Point Humidity Wind Precip. Elev Updated Type
Karnes County, Karnes City, TX 75.0 °F 73 °F 73 °F 95% NW  at  2.9 mph 0.00 in / hr 381 ft 3:02 AM CDT Rapid Fire
CR-303, Runge, TX 74.1 °F 72 °F 72 °F 94% SE  at  2.2 mph - / hr 331 ft 2:50 AM CDT Normal

Show More Stations Show Fewer Stations